Time;durP1;ratioP1;P1;durP2;ratioP2;P2;SDS_P1;SDS_P2;PMS_P1;PMS_P2;Temp;Humidity;BMP_temperature;BMP_pressure;BME280_temperature;BME280_humidity;BME280_pressure;Samples;Min_cycle;Max_cycle;Signal;HPM_P1;HPM_P2
2022/01/11 00:01:29;;;;;;;43.33;22.75;;;1.60;99.90;;;;;;5024342;28;20246;-82
2022/01/11 00:03:55;;;;;;;47.47;23.20;;;1.60;99.90;;;;;;5026956;28;20291;-81
2022/01/11 00:06:44;;;;;;;42.37;24.00;;;1.60;99.90;;;;;;5026262;28;20173;-80
2022/01/11 00:11:48;;;;;;;40.35;20.98;;;1.70;99.90;;;;;;5029245;28;20193;-78
2022/01/11 00:14:14;;;;;;;38.13;18.33;;;2.00;99.90;;;;;;5029966;28;20225;-83
2022/01/11 00:16:40;;;;;;;37.23;18.50;;;1.50;99.90;;;;;;5028712;28;20193;-84
2022/01/11 00:19:06;;;;;;;40.57;19.97;;;1.20;99.90;;;;;;5050474;28;20421;-78
2022/01/11 00:21:44;;;;;;;45.40;18.23;;;1.10;99.90;;;;;;5046139;28;20185;-79
2022/01/11 00:27:09;;;;;;;35.10;14.30;;;1.00;99.90;;;;;;5031234;28;20867;-82
2022/01/11 00:29:39;;;;;;;34.58;14.70;;;1.10;99.90;;;;;;5015365;28;20189;-84
2022/01/11 00:32:09;;;;;;;32.97;14.27;;;1.10;99.90;;;;;;5035704;28;20247;-83
2022/01/11 00:34:47;;;;;;;36.85;16.08;;;1.10;99.90;;;;;;5031946;28;20209;-80
2022/01/11 00:37:13;;;;;;;29.25;15.90;;;1.20;99.90;;;;;;5035319;28;20197;-81
2022/01/11 00:39:42;;;;;;;34.85;16.52;;;1.30;99.90;;;;;;5045557;28;20189;-79
2022/01/11 00:42:12;;;;;;;31.13;15.50;;;1.40;99.90;;;;;;5041315;28;20185;-77
2022/01/11 00:44:37;;;;;;;38.38;16.52;;;1.50;99.90;;;;;;5034181;28;20298;-79
2022/01/11 00:47:03;;;;;;;42.93;18.57;;;1.50;99.90;;;;;;5035248;28;20681;-78
2022/01/11 00:49:29;;;;;;;37.72;16.33;;;1.50;99.90;;;;;;5013657;28;21169;-79
2022/01/11 00:51:54;;;;;;;40.50;15.63;;;1.60;99.90;;;;;;5013159;28;20304;-80
2022/01/11 00:54:20;;;;;;;38.67;17.47;;;1.60;99.90;;;;;;5015706;28;20256;-81
2022/01/11 00:56:45;;;;;;;46.07;16.40;;;1.70;99.90;;;;;;5030860;28;22484;-79
2022/01/11 00:59:11;;;;;;;42.60;18.90;;;1.70;99.90;;;;;;5030318;28;20959;-82
2022/01/11 01:01:37;;;;;;;45.73;19.47;;;1.60;99.90;;;;;;5030053;28;20193;-82
2022/01/11 01:04:06;;;;;;;34.65;16.00;;;1.50;99.90;;;;;;5031482;28;20205;-76
2022/01/11 01:06:32;;;;;;;27.85;14.15;;;1.70;99.90;;;;;;5033244;28;20231;-79
2022/01/11 01:08:58;;;;;;;39.93;16.63;;;1.70;99.90;;;;;;5032630;28;20185;-78
2022/01/11 01:11:24;;;;;;;39.97;15.13;;;1.70;99.90;;;;;;5033471;28;20511;-78
2022/01/11 01:13:50;;;;;;;38.30;19.65;;;1.70;99.90;;;;;;5035640;28;20217;-81
2022/01/11 01:16:16;;;;;;;39.70;19.37;;;1.60;99.90;;;;;;5022046;28;20189;-78
2022/01/11 01:18:41;;;;;;;42.90;21.13;;;1.70;99.90;;;;;;5026966;28;20268;-84
2022/01/11 01:21:07;;;;;;;36.90;18.57;;;1.70;99.90;;;;;;5034314;28;20181;-82
2022/01/11 01:23:33;;;;;;;44.43;18.10;;;;;;;;;;5030353;28;20563;-81
2022/01/11 01:25:59;;;;;;;33.60;15.87;;;1.50;99.90;;;;;;5030324;28;20680;-81
2022/01/11 01:28:25;;;;;;;44.30;19.27;;;1.50;99.90;;;;;;5023844;28;20958;-81
2022/01/11 01:30:52;;;;;;;40.88;20.10;;;1.30;99.90;;;;;;5030411;28;20693;-84
2022/01/11 01:33:18;;;;;;;51.00;23.73;;;1.30;99.90;;;;;;5027030;28;20249;-79
2022/01/11 01:35:49;;;;;;;49.60;23.50;;;1.40;99.90;;;;;;5027702;28;20841;-80
2022/01/11 01:38:21;;;;;;;46.67;22.65;;;1.50;99.90;;;;;;5030248;28;20204;-81
2022/01/11 01:40:47;;;;;;;44.53;22.50;;;1.60;99.90;;;;;;5028336;28;20198;-84
2022/01/11 01:43:14;;;;;;;137.70;53.73;;;1.70;99.90;;;;;;5011670;28;20192;-82
2022/01/11 01:45:43;;;;;;;42.30;20.25;;;1.70;99.90;;;;;;5028122;28;20452;-83
2022/01/11 01:48:09;;;;;;;50.67;23.73;;;1.60;99.90;;;;;;5041558;28;20181;-78
2022/01/11 01:50:35;;;;;;;73.85;26.17;;;1.70;99.90;;;;;;5010893;28;20202;-80
2022/01/11 01:53:02;;;;;;;49.60;22.23;;;1.80;99.90;;;;;;5030562;28;20275;-83
2022/01/11 01:55:28;;;;;;;53.50;19.92;;;1.80;99.90;;;;;;5021138;28;20205;-80
2022/01/11 01:57:54;;;;;;;47.50;21.47;;;1.90;99.90;;;;;;5013553;28;20279;-82
2022/01/11 02:00:22;;;;;;;47.63;21.53;;;1.90;99.90;;;;;;5025211;28;20525;-80
2022/01/11 02:02:48;;;;;;;44.88;23.15;;;1.90;99.90;;;;;;5027355;28;20192;-80
2022/01/11 02:05:14;;;;;;;53.40;22.80;;;1.90;99.90;;;;;;5031883;28;20665;-83
2022/01/11 02:07:39;;;;;;;39.53;18.50;;;1.90;99.90;;;;;;5025360;28;20181;-82
2022/01/11 02:10:07;;;;;;;43.30;16.37;;;1.80;99.90;;;;;;5022410;28;20196;-82
2022/01/11 02:12:33;;;;;;;51.20;23.85;;;1.90;99.90;;;;;;5013868;28;20227;-80
2022/01/11 02:14:59;;;;;;;44.80;21.23;;;;;;;;;;5031931;28;20264;-81
2022/01/11 02:17:29;;;;;;;55.95;18.58;;;1.70;99.90;;;;;;5030539;28;20178;-81
2022/01/11 02:19:56;;;;;;;42.80;17.30;;;1.60;99.90;;;;;;5031489;28;20177;-83
2022/01/11 02:22:23;;;;;;;32.25;17.52;;;1.50;99.90;;;;;;5011610;28;20255;-79
2022/01/11 02:24:49;;;;;;;49.53;18.27;;;1.40;99.90;;;;;;5023753;28;20230;-80
2022/01/11 02:27:14;;;;;;;46.27;18.07;;;1.40;99.90;;;;;;5029110;28;20181;-82
2022/01/11 02:29:40;;;;;;;42.00;17.33;;;1.50;99.90;;;;;;5030931;28;20196;-82
2022/01/11 02:32:07;;;;;;;51.67;18.67;;;1.50;99.90;;;;;;5030576;28;20231;-83
2022/01/11 02:34:32;;;;;;;40.63;17.40;;;1.60;99.90;;;;;;5028039;28;20239;-79
2022/01/11 02:36:58;;;;;;;40.07;16.63;;;1.60;99.90;;;;;;5027620;28;20185;-79
2022/01/11 02:39:23;;;;;;;47.00;20.30;;;1.60;99.90;;;;;;5032169;28;20196;-83
2022/01/11 02:41:55;;;;;;;42.87;19.87;;;1.50;99.90;;;;;;5032622;28;20599;-81
2022/01/11 02:44:21;;;;;;;56.97;20.83;;;1.40;99.90;;;;;;5015060;28;20303;-78
2022/01/11 02:46:46;;;;;;;46.40;20.07;;;1.40;99.90;;;;;;5027596;28;20300;-80
2022/01/11 02:49:12;;;;;;;44.07;19.87;;;1.60;99.90;;;;;;5030857;28;20244;-80
2022/01/11 02:51:38;;;;;;;39.70;19.17;;;1.70;99.90;;;;;;5026129;28;20185;-84
2022/01/11 02:54:05;;;;;;;56.20;21.43;;;1.70;99.90;;;;;;5031400;28;20209;-80
2022/01/11 02:56:31;;;;;;;48.10;23.90;;;1.70;99.90;;;;;;5025714;28;20267;-80
2022/01/11 02:58:58;;;;;;;50.42;26.80;;;1.80;99.90;;;;;;5029573;28;20186;-81
2022/01/11 03:01:24;;;;;;;43.70;20.17;;;1.80;99.90;;;;;;5026866;28;20232;-79
2022/01/11 03:03:51;;;;;;;42.90;18.93;;;1.60;99.90;;;;;;5029869;28;21076;-82
2022/01/11 03:06:17;;;;;;;52.70;20.38;;;1.60;99.90;;;;;;5013887;28;20941;-80
2022/01/11 03:08:48;;;;;;;69.30;21.35;;;1.40;99.90;;;;;;5026180;28;20219;-82
2022/01/11 03:11:16;;;;;;;58.03;21.42;;;1.40;99.90;;;;;;5040367;28;20202;-84
2022/01/11 03:13:43;;;;;;;56.80;22.50;;;1.20;99.90;;;;;;5029230;28;20209;-82
2022/01/11 03:16:09;;;;;;;51.80;23.77;;;1.20;99.90;;;;;;5032519;28;20334;-82
2022/01/11 03:18:35;;;;;;;48.90;23.63;;;1.00;99.90;;;;;;5030035;28;20212;-83
2022/01/11 03:21:01;;;;;;;47.67;23.57;;;1.00;99.90;;;;;;5029906;28;20185;-81
2022/01/11 03:23:26;;;;;;;59.73;23.30;;;1.00;99.90;;;;;;5027813;28;20185;-80
2022/01/11 03:25:52;;;;;;;53.37;22.57;;;1.00;99.90;;;;;;5015066;28;20205;-83
2022/01/11 03:28:22;;;;;;;54.30;26.00;;;1.00;99.90;;;;;;5019333;28;20650;-82
2022/01/11 03:30:50;;;;;;;56.20;25.45;;;1.10;99.90;;;;;;5030497;28;20248;-84
2022/01/11 03:33:16;;;;;;;56.00;24.15;;;1.00;99.90;;;;;;5027577;28;20186;-82
2022/01/11 03:35:43;;;;;;;63.60;26.50;;;1.00;99.90;;;;;;5023470;28;20247;-81
2022/01/11 03:38:11;;;;;;;59.65;25.15;;;1.00;99.90;;;;;;5013161;28;21335;-83
2022/01/11 03:40:38;;;;;;;70.97;24.23;;;1.00;99.90;;;;;;5029716;28;20174;-82
2022/01/11 03:43:03;;;;;;;53.90;21.00;;;1.10;99.90;;;;;;5013298;28;20189;-84
2022/01/11 03:45:29;;;;;;;53.57;21.33;;;1.20;99.90;;;;;;5021533;28;20197;-81
2022/01/11 03:47:57;;;;;;;54.53;21.47;;;1.20;99.90;;;;;;5022537;28;20181;-84
2022/01/11 03:50:24;;;;;;;46.72;22.77;;;1.40;99.90;;;;;;5032258;28;20182;-81
2022/01/11 03:52:58;;;;;;;42.65;19.95;;;1.30;99.90;;;;;;5024483;28;20201;-83
2022/01/11 03:55:44;;;;;;;39.83;18.40;;;1.40;99.90;;;;;;5031823;28;20300;-80
2022/01/11 03:58:10;;;;;;;51.95;19.90;;;1.40;99.90;;;;;;5027961;28;20324;-83
2022/01/11 04:00:36;;;;;;;60.70;18.70;;;1.60;99.90;;;;;;5032106;28;20181;-83
2022/01/11 04:03:03;;;;;;;48.67;22.13;;;1.70;99.90;;;;;;5029507;28;20311;-84
2022/01/11 04:05:29;;;;;;;52.42;21.33;;;1.70;99.90;;;;;;5033295;28;20218;-81
2022/01/11 04:07:55;;;;;;;43.40;20.23;;;1.70;99.90;;;;;;5029586;28;20190;-83
2022/01/11 04:10:20;;;;;;;51.63;20.77;;;1.80;99.90;;;;;;5017795;28;20186;-83
2022/01/11 04:12:48;;;;;;;37.57;19.80;;;1.80;99.90;;;;;;5029913;28;20257;-81
2022/01/11 04:15:14;;;;;;;50.47;20.50;;;1.60;99.90;;;;;;5033421;28;20299;-83
2022/01/11 04:17:39;;;;;;;55.23;23.70;;;1.50;99.90;;;;;;5030912;28;20608;-82
2022/01/11 04:20:06;;;;;;;56.43;23.37;;;1.60;99.90;;;;;;5033922;28;20173;-81
2022/01/11 04:22:31;;;;;;;56.80;24.17;;;1.50;99.90;;;;;;5030900;28;20181;-83
2022/01/11 04:24:57;;;;;;;44.13;19.70;;;1.50;99.90;;;;;;5032179;28;20293;-82
2022/01/11 04:27:22;;;;;;;66.50;31.83;;;1.30;99.90;;;;;;5038477;28;20268;-81
2022/01/11 04:29:48;;;;;;;105.70;46.50;;;1.30;99.90;;;;;;5052103;28;20181;-80
2022/01/11 04:32:13;;;;;;;55.93;24.33;;;1.40;99.90;;;;;;5035843;28;20184;-83
2022/01/11 04:34:39;;;;;;;58.07;24.97;;;1.30;99.90;;;;;;5029521;28;20229;-79
2022/01/11 04:37:04;;;;;;;52.00;21.40;;;1.20;99.90;;;;;;5042859;28;20181;-81
2022/01/11 04:39:30;;;;;;;45.83;19.57;;;1.20;99.90;;;;;;5048108;28;20181;-81
2022/01/11 04:41:56;;;;;;;58.50;24.10;;;1.00;99.90;;;;;;5035253;28;20235;-84
2022/01/11 04:44:21;;;;;;;49.63;23.93;;;1.30;99.90;;;;;;5030091;28;20949;-83
2022/01/11 04:46:47;;;;;;;47.20;23.87;;;1.40;99.90;;;;;;5030699;28;20181;-85
2022/01/11 04:49:12;;;;;;;51.57;24.43;;;1.50;99.90;;;;;;5031996;28;20872;-82
2022/01/11 04:51:38;;;;;;;60.70;25.50;;;1.60;99.90;;;;;;5017171;28;20212;-83
2022/01/11 04:54:04;;;;;;;46.50;26.33;;;1.80;99.90;;;;;;5030180;28;20585;-83
2022/01/11 04:56:30;;;;;;;43.60;23.07;;;1.90;99.90;;;;;;5011508;28;20185;-82
2022/01/11 04:58:57;;;;;;;49.27;22.30;;;2.00;99.90;;;;;;5025914;28;21020;-81
2022/01/11 05:01:23;;;;;;;47.20;20.55;;;2.10;99.90;;;;;;5034771;28;20208;-80
2022/01/11 05:03:48;;;;;;;42.53;21.27;;;2.10;99.90;;;;;;5030192;28;20650;-83
2022/01/11 05:06:14;;;;;;;43.57;21.40;;;2.10;99.90;;;;;;5032030;28;20196;-82
2022/01/11 05:08:40;;;;;;;52.07;20.20;;;2.20;99.90;;;;;;5026722;28;20193;-82
2022/01/11 05:11:07;;;;;;;35.95;20.13;;;2.20;99.90;;;;;;5014205;28;20277;-84
2022/01/11 05:13:34;;;;;;;37.53;19.23;;;2.20;99.90;;;;;;5030136;28;20198;-82
2022/01/11 05:16:02;;;;;;;37.15;18.63;;;2.20;99.90;;;;;;5032786;28;20182;-82
2022/01/11 05:18:28;;;;;;;37.75;21.05;;;2.20;99.90;;;;;;5027136;28;20182;-80
2022/01/11 05:20:53;;;;;;;45.20;20.92;;;2.30;99.90;;;;;;5031010;28;20263;-81
2022/01/11 05:23:19;;;;;;;51.47;22.37;;;2.30;99.90;;;;;;5029883;28;20265;-83
2022/01/11 05:25:45;;;;;;;46.00;22.10;;;;;;;;;;5027597;28;20427;-82
2022/01/11 05:28:10;;;;;;;42.10;19.37;;;2.50;99.90;;;;;;5030435;28;20192;-81
2022/01/11 05:30:36;;;;;;;44.63;21.77;;;2.80;99.90;;;;;;5035770;28;20464;-81
2022/01/11 05:33:03;;;;;;;39.40;19.13;;;2.80;99.90;;;;;;5032508;28;20208;-82
2022/01/11 05:35:29;;;;;;;36.63;19.13;;;2.80;99.90;;;;;;5031165;28;20209;-79
2022/01/11 05:37:54;;;;;;;69.25;30.77;;;2.80;99.90;;;;;;5023242;28;20722;-78
2022/01/11 05:40:21;;;;;;;44.00;23.27;;;2.80;99.90;;;;;;5024098;28;20178;-81
2022/01/11 05:42:51;;;;;;;49.35;25.08;;;2.70;99.90;;;;;;5024900;28;20706;-83
2022/01/11 05:45:18;;;;;;;47.60;24.58;;;2.80;99.90;;;;;;5006884;28;20214;-79
2022/01/11 05:47:44;;;;;;;55.42;26.40;;;2.80;99.90;;;;;;5030069;28;21127;-83
2022/01/11 05:50:14;;;;;;;49.45;23.25;;;2.70;99.90;;;;;;5028309;28;20748;-81
2022/01/11 05:52:40;;;;;;;59.90;24.52;;;2.70;99.90;;;;;;5025119;28;20273;-78
2022/01/11 05:55:07;;;;;;;55.90;31.95;;;2.70;99.90;;;;;;5010420;28;20440;-80
2022/01/11 05:57:34;;;;;;;44.90;21.17;;;2.70;99.90;;;;;;5017567;28;20184;-79
2022/01/11 05:59:59;;;;;;;44.88;20.30;;;2.60;99.90;;;;;;5009794;28;20227;-81
2022/01/11 06:02:25;;;;;;;38.23;19.50;;;2.70;99.90;;;;;;5043590;28;20682;-78
2022/01/11 06:04:50;;;;;;;41.90;19.70;;;2.70;99.90;;;;;;5055301;28;20213;-80
2022/01/11 06:07:16;;;;;;;33.87;18.00;;;2.70;99.90;;;;;;5035954;28;20252;-83
2022/01/11 06:09:41;;;;;;;34.17;18.27;;;2.70;99.90;;;;;;5020505;28;20579;-82
2022/01/11 06:12:08;;;;;;;40.40;18.87;;;2.60;99.90;;;;;;5033540;28;20205;-81
2022/01/11 06:14:33;;;;;;;43.08;19.42;;;2.60;99.90;;;;;;5029701;28;20221;-82
2022/01/11 06:16:59;;;;;;;39.70;19.50;;;2.60;99.90;;;;;;5030816;28;20185;-82
2022/01/11 06:19:26;;;;;;;38.50;18.77;;;2.50;99.90;;;;;;5029108;28;20185;-79
2022/01/11 06:21:52;;;;;;;36.95;18.75;;;2.40;99.90;;;;;;5038246;28;20157;-79
2022/01/11 06:24:17;;;;;;;45.07;19.20;;;2.50;99.90;;;;;;5037788;28;20575;-80
2022/01/11 06:26:43;;;;;;;41.03;18.03;;;2.50;99.90;;;;;;5027046;28;20655;-82
2022/01/11 06:29:09;;;;;;;37.20;17.83;;;2.50;99.90;;;;;;5031804;28;20184;-79
2022/01/11 06:31:35;;;;;;;36.45;17.60;;;2.40;99.90;;;;;;5011696;28;20185;-83
2022/01/11 06:34:02;;;;;;;37.07;18.73;;;2.40;99.90;;;;;;5030415;28;20262;-80
2022/01/11 06:36:28;;;;;;;114.80;25.27;;;2.30;99.90;;;;;;5009676;28;20185;-80
2022/01/11 06:38:54;;;;;;;47.97;19.45;;;2.10;99.90;;;;;;5030098;28;20177;-84
2022/01/11 06:41:20;;;;;;;50.40;17.83;;;2.00;99.90;;;;;;5029872;28;20191;-81
2022/01/11 06:43:45;;;;;;;39.43;20.50;;;2.10;99.90;;;;;;5028751;28;20264;-81
2022/01/11 06:46:11;;;;;;;37.83;19.20;;;2.10;99.90;;;;;;5032013;28;20648;-83
2022/01/11 06:48:37;;;;;;;35.83;19.47;;;2.20;99.90;;;;;;5013297;28;20188;-84
2022/01/11 06:51:02;;;;;;;37.20;18.43;;;2.20;99.90;;;;;;5032585;28;20189;-83
2022/01/11 06:53:29;;;;;;;42.50;19.17;;;2.30;99.90;;;;;;5021341;28;20186;-82
2022/01/11 06:55:55;;;;;;;37.08;19.63;;;2.20;99.90;;;;;;5036855;28;20442;-84
2022/01/11 06:58:21;;;;;;;43.03;22.47;;;2.30;99.90;;;;;;5030788;28;20185;-83
2022/01/11 07:00:47;;;;;;;47.00;21.37;;;2.30;99.90;;;;;;5033684;28;20457;-83
2022/01/11 07:03:15;;;;;;;59.35;25.73;;;2.30;99.90;;;;;;5037092;28;20462;-81
2022/01/11 07:05:44;;;;;;;51.42;24.88;;;2.30;99.90;;;;;;5023834;28;20216;-85
2022/01/11 07:08:11;;;;;;;45.80;22.88;;;2.30;99.90;;;;;;5030625;28;20169;-85
2022/01/11 07:10:37;;;;;;;52.53;24.20;;;2.30;99.90;;;;;;5035388;28;20181;-83
2022/01/11 07:13:03;;;;;;;51.63;20.45;;;2.30;99.90;;;;;;5029132;28;20311;-83
2022/01/11 07:15:29;;;;;;;64.97;29.70;;;2.40;99.90;;;;;;5032530;28;20216;-80
2022/01/11 07:17:55;;;;;;;55.47;28.80;;;2.40;99.90;;;;;;5015471;28;20255;-84
2022/01/11 07:20:22;;;;;;;50.23;25.20;;;2.40;99.90;;;;;;5028114;28;20205;-83
2022/01/11 07:22:48;;;;;;;48.35;26.52;;;2.40;99.90;;;;;;5016544;28;20177;-83
2022/01/11 07:25:14;;;;;;;63.78;33.42;;;2.50;99.90;;;;;;5030636;28;20198;-82
2022/01/11 07:27:39;;;;;;;52.80;23.02;;;2.50;99.90;;;;;;5014262;28;20304;-82
2022/01/11 07:30:06;;;;;;;41.90;24.53;;;2.30;99.90;;;;;;5020746;28;20293;-86
2022/01/11 07:32:33;;;;;;;41.97;21.98;;;2.20;99.90;;;;;;5015503;28;20189;-83
2022/01/11 07:34:59;;;;;;;42.38;21.33;;;2.20;99.90;;;;;;5033068;28;20204;-81
2022/01/11 07:37:25;;;;;;;54.67;24.60;;;2.30;99.90;;;;;;5033794;28;20268;-84
2022/01/11 07:39:51;;;;;;;49.50;26.10;;;2.40;99.90;;;;;;5034354;28;20193;-82
2022/01/11 07:42:16;;;;;;;42.70;25.43;;;2.50;99.90;;;;;;5031373;28;20186;-82
2022/01/11 07:44:43;;;;;;;45.80;23.07;;;2.60;99.90;;;;;;5027301;28;20197;-83
2022/01/11 07:47:09;;;;;;;40.50;24.08;;;2.60;99.90;;;;;;5031409;28;20261;-83
2022/01/11 07:49:34;;;;;;;53.70;29.57;;;2.60;99.90;;;;;;5015581;28;20271;-81
2022/01/11 07:52:00;;;;;;;46.03;23.40;;;2.70;99.90;;;;;;5018729;28;20460;-81
2022/01/11 07:54:26;;;;;;;53.20;21.60;;;2.80;99.90;;;;;;5022657;28;20210;-83
2022/01/11 07:56:51;;;;;;;41.17;19.50;;;2.90;99.90;;;;;;5029440;28;20173;-83
2022/01/11 07:59:17;;;;;;;39.50;20.50;;;3.00;99.90;;;;;;5024016;28;20182;-83
2022/01/11 08:01:42;;;;;;;40.93;21.90;;;3.10;99.90;;;;;;5029176;28;20192;-84
2022/01/11 08:04:08;;;;;;;37.13;20.70;;;3.10;99.90;;;;;;5033534;28;20277;-80
2022/01/11 08:06:33;;;;;;;44.67;22.33;;;2.80;99.90;;;;;;5027057;28;20201;-82
2022/01/11 08:09:00;;;;;;;37.30;19.10;;;3.10;99.90;;;;;;5028806;28;20186;-84
2022/01/11 08:11:27;;;;;;;31.73;17.23;;;3.10;99.90;;;;;;5027425;28;20239;-83
2022/01/11 08:13:52;;;;;;;48.35;23.38;;;3.30;99.90;;;;;;5031689;28;20277;-82
2022/01/11 08:16:18;;;;;;;38.60;19.00;;;3.30;99.90;;;;;;5051302;28;20397;-85
2022/01/11 08:18:43;;;;;;;48.43;22.77;;;3.40;99.90;;;;;;5018436;28;20188;-81
2022/01/11 08:21:09;;;;;;;54.50;23.00;;;3.50;99.90;;;;;;5031821;28;20202;-83
2022/01/11 08:23:34;;;;;;;44.07;19.83;;;3.50;99.90;;;;;;5031023;28;20258;-83
2022/01/11 08:26:00;;;;;;;41.10;21.23;;;3.50;99.90;;;;;;5028531;28;20202;-82
2022/01/11 08:28:26;;;;;;;43.27;20.90;;;6.80;99.90;;;;;;5033541;28;20189;-82
2022/01/11 08:30:52;;;;;;;35.20;19.63;;;3.60;99.90;;;;;;5025437;28;20439;-83
2022/01/11 08:33:18;;;;;;;27.88;16.15;;;3.60;99.90;;;;;;5026612;28;20747;-82
2022/01/11 08:35:43;;;;;;;40.37;17.93;;;3.50;99.90;;;;;;5009657;28;20217;-80
2022/01/11 08:38:09;;;;;;;39.67;17.57;;;3.60;99.90;;;;;;5029246;28;20181;-81
2022/01/11 08:40:35;;;;;;;33.73;17.97;;;3.60;99.90;;;;;;5017714;28;20320;-81
2022/01/11 08:43:03;;;;;;;36.70;18.30;;;3.50;99.90;;;;;;5025458;28;20482;-83
2022/01/11 08:45:30;;;;;;;36.35;18.25;;;3.60;99.90;;;;;;5009784;28;20944;-81
2022/01/11 08:47:56;;;;;;;38.13;18.15;;;3.60;99.90;;;;;;5025636;28;21011;-81
2022/01/11 08:50:21;;;;;;;39.00;19.80;;;3.80;99.90;;;;;;5029489;28;20216;-83
2022/01/11 08:52:47;;;;;;;40.07;18.93;;;;;;;;;;5024102;28;20189;-78
2022/01/11 08:55:13;;;;;;;34.47;18.63;;;3.70;99.90;;;;;;5011178;28;20217;-81
2022/01/11 08:57:41;;;;;;;41.17;19.25;;;3.80;99.90;;;;;;5005481;28;20181;-84
2022/01/11 09:00:13;;;;;;;38.92;19.85;;;3.80;99.90;;;;;;5028676;28;20193;-81
2022/01/11 09:02:39;;;;;;;43.28;19.33;;;3.80;99.90;;;;;;5033299;28;20207;-80
2022/01/11 09:05:05;;;;;;;39.33;20.93;;;3.80;99.90;;;;;;5039233;28;21323;-80
2022/01/11 09:07:30;;;;;;;40.47;20.13;;;4.00;99.90;;;;;;5017546;28;21056;-83
2022/01/11 09:09:56;;;;;;;37.20;20.43;;;4.10;99.90;;;;;;5025228;28;20523;-82
2022/01/11 09:12:21;;;;;;;42.83;19.80;;;4.30;99.90;;;;;;5025988;28;20209;-81
2022/01/11 09:14:48;;;;;;;42.20;20.27;;;4.30;99.90;;;;;;5021605;28;20202;-80
2022/01/11 09:17:14;;;;;;;36.55;19.52;;;4.30;99.90;;;;;;5024017;28;21087;-80
2022/01/11 09:19:40;;;;;;;47.23;22.67;;;4.20;99.90;;;;;;5009581;28;20180;-82
2022/01/11 09:22:06;;;;;;;41.23;19.70;;;4.30;99.90;;;;;;5021027;28;20443;-78
2022/01/11 09:24:33;;;;;;;31.30;17.90;;;4.40;99.90;;;;;;5029312;28;20238;-83
2022/01/11 09:27:02;;;;;;;32.72;17.70;;;4.40;99.90;;;;;;5012623;28;20319;-83
2022/01/11 09:29:27;;;;;;;43.53;18.90;;;4.50;99.90;;;;;;5026854;28;20182;-81
2022/01/11 09:31:56;;;;;;;37.70;19.20;;;4.50;99.90;;;;;;5016814;28;20204;-84
2022/01/11 09:34:22;;;;;;;33.88;18.02;;;4.50;99.90;;;;;;5028422;28;20236;-81
2022/01/11 09:36:47;;;;;;;41.27;19.30;;;4.70;99.90;;;;;;5008881;28;20181;-82
2022/01/11 09:39:13;;;;;;;37.67;18.37;;;4.80;99.90;;;;;;5029171;28;20881;-85
2022/01/11 09:41:39;;;;;;;36.67;16.53;;;4.90;99.90;;;;;;5026511;28;20643;-81
2022/01/11 09:44:06;;;;;;;35.90;19.17;;;4.80;99.90;;;;;;5037215;28;20200;-81
2022/01/11 09:46:32;;;;;;;33.03;17.90;;;4.80;99.90;;;;;;5038287;22;20189;-86
2022/01/11 09:48:58;;;;;;;33.22;17.70;;;4.80;99.90;;;;;;4975797;28;20226;-83
2022/01/11 09:51:23;;;;;;;32.60;16.20;;;4.90;99.90;;;;;;4952804;28;20209;-82
2022/01/11 09:53:49;;;;;;;34.93;18.90;;;5.00;99.90;;;;;;4934211;28;20287;-84
2022/01/11 09:56:14;;;;;;;38.37;19.03;;;5.10;99.90;;;;;;4934688;28;20216;-83
2022/01/11 09:58:45;;;;;;;30.67;17.77;;;4.90;99.90;;;;;;4935678;28;20174;-84
2022/01/11 10:01:12;;;;;;;30.63;17.50;;;4.90;99.90;;;;;;4974168;22;20223;-86
2022/01/11 10:04:03;;;;;;;27.92;17.35;;;5.10;99.90;;;;;;4967205;28;20184;-87
2022/01/11 10:06:29;;;;;;;31.02;18.08;;;5.10;99.90;;;;;;4966654;28;20210;-86
2022/01/11 10:09:16;;;;;;;33.87;18.17;;;5.00;99.90;;;;;;4942749;28;20843;-86
2022/01/11 10:11:48;;;;;;;36.08;18.17;;;5.00;99.90;;;;;;4955839;28;20218;-85
2022/01/11 10:14:29;;;;;;;37.95;19.70;;;5.00;99.90;;;;;;4946761;28;20278;-87
2022/01/11 10:17:19;;;;;;;34.42;18.65;;;4.90;99.90;;;;;;4962135;28;20869;-87
2022/01/11 10:19:47;;;;;;;30.98;16.13;;;4.90;99.90;;;;;;4956296;28;20779;-87
2022/01/11 10:22:22;;;;;;;34.65;18.67;;;4.90;99.90;;;;;;4947835;28;20181;-87
2022/01/11 10:24:50;;;;;;;40.88;18.92;;;5.00;99.90;;;;;;4943841;28;20184;-86
2022/01/11 10:27:25;;;;;;;30.80;17.63;;;5.00;99.90;;;;;;4963375;28;20216;-87
2022/01/11 10:29:53;;;;;;;28.48;16.35;;;5.20;99.90;;;;;;4963312;28;20188;-89
2022/01/11 10:32:33;;;;;;;33.72;16.27;;;5.20;99.90;;;;;;4956362;28;20192;-89
2022/01/11 10:35:02;;;;;;;37.20;17.40;;;5.10;99.90;;;;;;4947358;28;20250;-87
2022/01/11 10:37:37;;;;;;;35.03;17.30;;;5.20;99.90;;;;;;4964467;28;20230;-86
2022/01/11 10:40:15;;;;;;;29.25;17.23;;;5.20;99.90;;;;;;4951558;28;20207;-86
2022/01/11 10:42:51;;;;;;;31.88;17.90;;;5.20;99.90;;;;;;4965730;28;20262;-87
2022/01/11 10:45:27;;;;;;;33.20;17.13;;;5.40;99.90;;;;;;4952673;28;20183;-86
2022/01/11 10:47:58;;;;;;;28.17;16.67;;;5.50;99.90;;;;;;4953292;28;20784;-86
2022/01/11 10:50:42;;;;;;;33.15;16.73;;;5.80;99.90;;;;;;4963169;28;20187;-86
2022/01/11 10:53:17;;;;;;;38.50;16.17;;;6.00;99.90;;;;;;4981291;28;20199;-85
2022/01/11 10:55:48;;;;;;;31.02;15.93;;;6.20;99.90;;;;;;4964777;28;20350;-90
2022/01/11 10:58:14;;;;;;;27.67;15.85;;;6.20;99.90;;;;;;4957418;28;20210;-87
2022/01/11 11:00:48;;;;;;;32.30;17.17;;;6.20;99.90;;;;;;4951881;28;20208;-86
2022/01/11 11:03:28;;;;;;;34.15;18.15;;;5.90;99.90;;;;;;4958171;28;20188;-86
2022/01/11 11:05:57;;;;;;;39.22;20.13;;;6.00;99.90;;;;;;4957897;28;20187;-86
2022/01/11 11:08:30;;;;;;;30.98;16.42;;;6.10;99.90;;;;;;4965578;28;21049;-86
2022/01/11 11:10:56;;;;;;;30.92;16.35;;;6.40;99.90;;;;;;4962507;28;20194;-88
2022/01/11 11:13:42;;;;;;;34.80;17.13;;;6.30;99.90;;;;;;4949903;28;20185;-86
2022/01/11 11:16:29;;;;;;;35.75;17.27;;;6.20;99.90;;;;;;4951182;28;21039;-86
2022/01/11 11:18:59;;;;;;;51.85;21.10;;;6.40;99.90;;;;;;4945864;28;20188;-86
2022/01/11 11:21:27;;;;;;;30.17;16.63;;;6.70;99.90;;;;;;4957631;28;20180;-86
2022/01/11 11:24:15;;;;;;;28.83;18.40;;;6.90;99.90;;;;;;4944658;28;20191;-86
2022/01/11 11:26:48;;;;;;;31.73;15.90;;;7.00;99.90;;;;;;4959151;28;20199;-86
2022/01/11 11:29:14;;;;;;;27.20;15.60;;;7.00;99.90;;;;;;4946622;28;20649;-88
2022/01/11 11:31:40;;;;;;;30.52;16.40;;;7.10;99.90;;;;;;4951990;28;20192;-86
2022/01/11 11:34:08;;;;;;;30.07;16.20;;;6.80;99.90;;;;;;4964018;28;20285;-85
2022/01/11 11:36:36;;;;;;;26.90;16.40;;;6.90;99.90;;;;;;4946704;28;20477;-86
2022/01/11 11:39:11;;;;;;;28.17;15.05;;;6.90;99.90;;;;;;4953034;28;20916;-85
2022/01/11 11:41:41;;;;;;;26.27;15.20;;;6.90;99.90;;;;;;4952780;28;20187;-88
2022/01/11 11:44:18;;;;;;;34.50;16.02;;;7.00;99.90;;;;;;4942475;28;20648;-88
2022/01/11 11:46:49;;;;;;;22.42;13.52;;;6.90;99.90;;;;;;4946272;28;20656;-88
2022/01/11 11:49:17;;;;;;;24.92;15.15;;;7.00;99.90;;;;;;4947691;28;20184;-88
2022/01/11 11:51:44;;;;;;;23.45;15.18;;;7.10;99.90;;;;;;4946730;28;20189;-87
2022/01/11 11:54:12;;;;;;;24.77;13.45;;;7.00;99.90;;;;;;4961179;28;20286;-87
2022/01/11 11:56:37;;;;;;;24.83;15.82;;;7.10;99.90;;;;;;4942249;28;20833;-86
2022/01/11 11:59:09;;;;;;;21.70;14.17;;;6.90;99.90;;;;;;4962711;28;20314;-85
2022/01/11 12:01:49;;;;;;;33.80;15.48;;;7.20;99.90;;;;;;4951895;28;20829;-86
2022/01/11 12:04:16;;;;;;;35.60;15.50;;;7.20;99.90;;;;;;4943800;28;20199;-85
2022/01/11 12:06:43;;;;;;;26.33;14.23;;;7.20;99.90;;;;;;4959856;28;20196;-86
2022/01/11 12:09:12;;;;;;;29.95;16.52;;;7.40;99.90;;;;;;4981016;28;20230;-84
2022/01/11 12:11:50;;;;;;;24.20;15.32;;;7.20;99.90;;;;;;4954248;28;20203;-85
2022/01/11 12:14:29;;;;;;;27.67;14.73;;;7.10;99.90;;;;;;4963256;28;20212;-85
2022/01/11 12:16:56;;;;;;;22.13;13.68;;;;;;;;;;4946455;28;20761;-86
2022/01/11 12:19:42;;;;;;;23.17;14.25;;;7.30;99.90;;;;;;4950291;28;20761;-86
2022/01/11 12:22:08;;;;;;;27.67;13.57;;;7.30;99.90;;;;;;4967150;28;20198;-86
2022/01/11 12:24:42;;;;;;;25.63;14.30;;;7.40;99.90;;;;;;4962696;28;20667;-86
2022/01/11 12:27:10;;;;;;;20.55;13.13;;;7.30;99.90;;;;;;4960150;28;20326;-85
2022/01/11 12:29:38;;;;;;;21.67;12.20;;;7.10;99.90;;;;;;4952329;28;20294;-86
2022/01/11 12:32:06;;;;;;;21.50;12.20;;;7.10;99.90;;;;;;4951295;28;22513;-86
2022/01/11 12:34:59;;;;;;;24.98;11.55;;;7.20;99.90;;;;;;4951152;28;20214;-87
2022/01/11 12:37:45;;;;;;;21.30;12.27;;;7.00;99.90;;;;;;4950308;28;20200;-85
2022/01/11 12:40:29;;;;;;;20.23;12.00;;;6.70;99.90;;;;;;4944245;28;20286;-86
2022/01/11 12:43:06;;;;;;;15.93;10.60;;;6.70;99.90;;;;;;4948446;28;20168;-86
2022/01/11 12:45:53;;;;;;;21.40;11.57;;;6.50;99.90;;;;;;4949301;28;20232;-86
2022/01/11 12:48:44;;;;;;;21.10;10.85;;;6.30;99.90;;;;;;4967171;28;20222;-86